Cape Dorset Airport
CYTE : now visible

Airfield :











YOU CAN JOIN US ON...

 
LOGIN :

Register | Disclaimer

   EN    FR    IT 

 









Legend :    VFR   Marginal VFR   IFR   Intensive IFR   Very Intensive IFR
Visi :
Ceiling :
>= 8 km
>= 3000ft
5 to 8 km
1000 to 3000 ft
1500m to 5 km
500 to 1000 ft
800 to 1500m
200 to 500 ft
< 800m
< 200 ft
Symbols :   Thunderstorms  Fog  Heavy snow  Heavy precipitations  Wind > 20 kt






- Airport Elevation : 164 ft
- IATA code : YTE


CYTE - Cape Dorset

CURRENT METAR :
  • 110900Z AUTO 25004KT 230V300 9SM OVC085 M16/M18 A2950 RMK SLP997

EXPIRED METARs :
  • 110800Z AUTO 25004KT 9SM SCT090 M16/M19 A2951 RMK SLP001
  • 110700Z AUTO 30003KT 9SM CLR M16/M19 A2952 RMK SLP004

TAF TAF CYTE
Valid from the 11 at 07:00 until the 11 at 19:00 UTC


110638Z 1107/1119 32008KT P6SM FEW020 SCT040
TEMPO 1107/1113 2SM -SN BKN020 OVC040
FM111300 32008KT P6SM -SN SCT020 BKN040
TEMPO 1113/1119 2SM -SN OVC020 RMK FCST BASED ON AUTO OBS. NXT FCST BY 111300Z



MET'MAP, your aeronautical weather chart ! - Copyright ORBIFLY December 2007 - Disclaimer

ORBIFLY MET'MAP TEAM :

Programming & Development : Alexandra Zaïnal
Concept & original design : Baudouin d'Aumeries
Assistance for programming : Marc-Olivier Méhu
Technical & hardware support : Manuel Goepfert

Contact : metmap@orbifly.com




SOURCES & CREDITS :

   NOAA       Earth
Advisory